Time;durP1;ratioP1;P1;durP2;ratioP2;P2;SDS_P1;SDS_P2;PMS_P1;PMS_P2;Temp;Humidity;BMP_temperature;BMP_pressure;BME280_temperature;BME280_humidity;BME280_pressure;Samples;Min_cycle;Max_cycle;Signal;HPM_P1;HPM_P2
2021/12/19 00:00:58;;;;;;;6.10;4.03;;;;;;;-145.06;0.00;60892.56;4725075;29;20024;-86
2021/12/19 00:04:01;;;;;;;7.32;4.60;;;;;;;-145.06;0.00;60892.56;4733949;29;20033;-85
2021/12/19 00:09:38;;;;;;;8.18;4.40;;;;;;;-145.06;0.00;60892.56;4725204;29;20029;-86
2021/12/19 00:12:17;;;;;;;6.70;4.17;;;;;;;-145.06;0.00;60892.56;4726761;29;20037;-87
2021/12/19 00:14:57;;;;;;;7.00;4.30;;;;;;;-145.06;0.00;60892.56;4718209;29;20037;-86
2021/12/19 00:17:36;;;;;;;7.93;4.80;;;;;;;10.68;0.00;60892.56;4716735;29;20037;-86
2021/12/19 00:20:14;;;;;;;8.23;5.18;;;;;;;-145.06;0.00;60892.56;4715044;29;20036;-86
2021/12/19 00:22:53;;;;;;;9.10;5.20;;;;;;;-145.06;0.00;60892.56;4710843;29;20040;-86
2021/12/19 00:25:32;;;;;;;9.85;4.45;;;;;;;-145.06;0.00;60892.56;4712838;29;20032;-86
2021/12/19 00:28:11;;;;;;;7.60;4.53;;;;;;;-145.06;0.00;60892.56;4720394;29;20040;-84
2021/12/19 00:30:50;;;;;;;8.55;4.40;;;;;;;-145.06;0.00;60892.56;4721712;29;20029;-85
2021/12/19 00:33:29;;;;;;;7.20;4.87;;;;;;;-145.06;0.00;60892.56;4730201;29;20041;-86
2021/12/19 00:36:09;;;;;;;8.57;4.93;;;;;;;-145.06;0.00;60892.56;4702321;29;20111;-86
2021/12/19 00:38:48;;;;;;;6.80;4.15;;;;;;;-145.06;0.00;60892.56;4724094;29;20112;-86
2021/12/19 00:41:27;;;;;;;7.60;4.50;;;;;;;-145.06;0.00;60892.56;4709821;29;20045;-85
2021/12/19 00:44:14;;;;;;;9.90;5.28;;;;;;;-145.06;0.00;60892.56;4709613;29;20028;-85
2021/12/19 00:47:04;;;;;;;8.52;4.18;;;;;;;-145.06;0.00;60892.56;4708338;29;20111;-85
2021/12/19 00:49:43;;;;;;;10.00;5.07;;;;;;;-145.06;0.00;60892.56;4706936;29;20036;-86
2021/12/19 00:52:23;;;;;;;7.67;4.53;;;;;;;-145.06;0.00;60892.56;4706481;29;20029;-86
2021/12/19 00:55:03;;;;;;;8.73;4.63;;;;;;;-145.06;0.00;60892.56;4724306;29;20032;-85
2021/12/19 00:57:43;;;;;;;9.75;5.20;;;;;;;-145.06;0.00;60892.56;4723484;29;20115;-85
2021/12/19 01:00:26;;;;;;;10.23;5.57;;;;;;;-145.06;0.00;60892.56;4709134;29;20033;-85
2021/12/19 01:03:05;;;;;;;8.13;4.90;;;;;;;-145.06;0.00;60892.56;4722083;29;20036;-86
2021/12/19 01:05:44;;;;;;;8.93;5.18;;;;;;;-145.06;0.00;60892.56;4728725;29;20392;-86
2021/12/19 01:08:24;;;;;;;9.45;5.38;;;;;;;-145.06;0.00;60892.56;4706808;29;20040;-85
2021/12/19 01:11:03;;;;;;;9.02;5.40;;;;;;;-145.06;0.00;60892.56;4723785;29;20036;-85
2021/12/19 01:13:42;;;;;;;9.63;5.32;;;;;;;-145.06;0.00;60892.56;4718644;29;20380;-85
2021/12/19 01:16:21;;;;;;;13.57;5.95;;;;;;;-145.06;0.00;60892.56;4712257;29;20036;-86
2021/12/19 01:19:00;;;;;;;8.05;5.18;;;;;;;-145.06;0.00;60892.56;4715271;29;20111;-87
2021/12/19 01:21:39;;;;;;;10.32;6.13;;;;;;;-145.06;0.00;60892.56;4727859;29;20028;-85
2021/12/19 01:24:18;;;;;;;9.77;5.80;;;;;;;-145.06;0.00;60892.56;4713815;29;20036;-86
2021/12/19 01:26:57;;;;;;;10.25;6.22;;;;;;;-145.06;0.00;60892.56;4712466;29;20044;-85
2021/12/19 01:29:36;;;;;;;9.80;5.65;;;;;;;-145.06;0.00;60892.56;4713809;29;20075;-85
2021/12/19 01:32:16;;;;;;;10.27;5.70;;;;;;;-145.06;0.00;60892.56;4710843;29;20654;-86
2021/12/19 01:34:55;;;;;;;10.20;5.97;;;;;;;-145.06;0.00;60892.56;4722951;29;20049;-86
2021/12/19 01:37:34;;;;;;;11.23;5.85;;;;;;;-145.06;0.00;60892.56;4705812;29;20040;-86
2021/12/19 01:40:17;;;;;;;9.20;5.47;;;;;;;-145.06;0.00;60892.56;4725379;29;20044;-86
2021/12/19 01:42:57;;;;;;;9.00;5.97;;;;;;;7.44;0.00;60892.56;4722130;29;20045;-86
2021/12/19 01:45:38;;;;;;;7.57;5.20;;;;;;;-145.06;0.00;60892.56;4713739;29;20158;-85
2021/12/19 01:48:17;;;;;;;9.15;5.63;;;;;;;-145.06;0.00;60892.56;4708462;29;20036;-86
2021/12/19 01:50:56;;;;;;;9.55;5.25;;;;;;;-145.06;0.00;60892.56;4723299;29;20048;-86
2021/12/19 01:53:36;;;;;;;8.55;5.38;;;;;;;-145.06;0.00;60892.56;4710331;29;20032;-85
2021/12/19 01:56:15;;;;;;;9.98;5.43;;;;;;;-145.06;0.00;60892.56;4723374;29;20119;-85
2021/12/19 01:58:53;;;;;;;8.52;5.15;;;;;;;-145.06;0.00;60892.56;4722444;29;20112;-86
2021/12/19 02:01:43;;;;;;;7.55;4.70;;;;;;;-145.06;0.00;60892.56;4707399;29;20037;-86
2021/12/19 02:04:23;;;;;;;9.35;5.57;;;;;;;-145.06;0.00;60892.56;4710081;29;20055;-86
2021/12/19 02:07:02;;;;;;;8.73;4.90;;;;;;;-145.06;0.00;60892.56;4729677;29;20040;-86
2021/12/19 02:09:42;;;;;;;7.22;4.18;;;;;;;-145.06;0.00;60892.56;4711617;29;20063;-86
2021/12/19 02:12:21;;;;;;;8.13;4.47;;;;;;;-145.06;0.00;60892.56;4728722;29;20029;-86
2021/12/19 02:15:00;;;;;;;8.57;4.60;;;;;;;-145.06;0.00;60892.56;4724116;29;20048;-86
2021/12/19 02:17:39;;;;;;;7.32;3.95;;;;;;;-145.06;0.00;60892.56;4709087;29;20281;-86
2021/12/19 02:20:21;;;;;;;7.53;4.80;;;;;;;-145.06;0.00;60892.56;4706456;29;20044;-86
2021/12/19 02:23:00;;;;;;;5.82;3.72;;;;;;;-145.06;0.00;60892.56;4703596;29;20822;-86
2021/12/19 02:25:40;;;;;;;6.93;3.90;;;;;;;-145.06;0.00;60892.56;4724921;29;20040;-86
2021/12/19 02:28:20;;;;;;;5.90;3.55;;;;;;;-145.06;0.00;60892.56;4720371;29;20131;-86
2021/12/19 02:31:00;;;;;;;4.97;3.40;;;;;;;-145.06;0.00;60892.56;4707266;29;20660;-86
2021/12/19 02:33:42;;;;;;;5.97;3.42;;;;;;;7.51;0.00;60892.56;4706177;29;20490;-86
2021/12/19 02:36:37;;;;;;;5.22;3.08;;;;;;;-145.06;0.00;60892.56;4716685;29;20123;-86
2021/12/19 02:48:14;;;;;;;5.00;3.15;;;;;;;-145.06;0.00;60892.56;4715446;29;20115;-86
2021/12/19 02:50:54;;;;;;;3.97;2.47;;;;;;;-145.06;0.00;60892.56;4711520;29;20036;-86
2021/12/19 02:53:38;;;;;;;;;;;;;;;-145.06;0.00;60892.56;4711508;29;20123;-86
2021/12/19 02:56:19;;;;;;;3.00;2.10;;;;;;;-145.06;0.00;60892.56;4709319;29;20006;-86
2021/12/19 02:58:58;;;;;;;3.95;2.30;;;;;;;-145.06;0.00;60892.56;4713847;29;20040;-86
2021/12/19 03:01:38;;;;;;;3.40;2.05;;;;;;;10.68;0.00;60892.56;4721978;29;20028;-84
2021/12/19 03:04:17;;;;;;;3.70;2.28;;;;;;;-145.06;0.00;60892.56;4717276;29;20032;-86
2021/12/19 03:06:55;;;;;;;3.65;2.22;;;;;;;-145.06;0.00;60892.56;4713113;29;20670;-86
2021/12/19 03:09:53;;;;;;;3.83;2.40;;;;;;;-145.06;0.00;60892.56;4712244;29;20491;-85
2021/12/19 03:18:12;;;;;;;3.90;2.22;;;;;;;-145.06;0.00;60892.56;4724503;29;20036;-86
2021/12/19 03:20:51;;;;;;;3.53;2.20;;;;;;;-145.06;0.00;60892.56;4724273;29;20040;-86
2021/12/19 03:23:30;;;;;;;5.20;2.60;;;;;;;-145.06;0.00;60892.56;4726339;29;20036;-85
2021/12/19 03:26:10;;;;;;;4.07;2.20;;;;;;;-145.06;0.00;60892.56;4728116;29;20260;-86
2021/12/19 03:28:49;;;;;;;3.42;2.10;;;;;;;-145.06;0.00;60892.56;4713815;29;20033;-86
2021/12/19 03:31:28;;;;;;;3.17;1.95;;;;;;;-145.06;0.00;60892.56;4726728;29;20471;-86
2021/12/19 03:34:07;;;;;;;3.50;2.08;;;;;;;-145.06;0.00;60892.56;4721230;29;20044;-86
2021/12/19 03:36:47;;;;;;;3.53;2.22;;;;;;;-145.06;0.00;60892.56;4709073;29;20036;-86
2021/12/19 03:39:34;;;;;;;2.97;1.85;;;;;;;-145.06;0.00;60892.56;4708097;29;20044;-86
2021/12/19 03:42:13;;;;;;;3.80;2.25;;;;;;;-145.06;0.00;60892.56;4712082;29;20041;-86
2021/12/19 03:44:53;;;;;;;2.93;1.93;;;;;;;-145.06;0.00;60892.56;4717720;29;20568;-86
2021/12/19 03:47:32;;;;;;;3.22;2.03;;;;;;;-145.06;0.00;60892.56;4720751;29;20036;-86
2021/12/19 03:50:16;;;;;;;3.47;2.35;;;;;;;-145.06;0.00;60892.56;4722791;29;20040;-85
2021/12/19 03:52:55;;;;;;;3.70;2.42;;;;;;;-145.06;0.00;60892.56;4711299;29;20380;-86
2021/12/19 03:55:34;;;;;;;3.75;2.15;;;;;;;-145.06;0.00;60892.56;4726615;29;20048;-86
2021/12/19 03:58:14;;;;;;;3.97;2.53;;;;;;;-145.06;0.00;60892.56;4722995;29;20037;-87
2021/12/19 04:00:58;;;;;;;2.83;1.70;;;;;;;-145.06;0.00;60892.56;4711683;29;20032;-85
2021/12/19 04:03:38;;;;;;;2.88;1.90;;;;;;;-145.06;0.00;60892.56;4713839;29;20036;-86
2021/12/19 04:06:17;;;;;;;3.22;1.98;;;;;;;-145.06;0.00;60892.56;4725981;29;20510;-86
2021/12/19 04:08:56;;;;;;;5.38;2.72;;;;;;;-145.06;0.00;60892.56;4724862;29;20067;-85
2021/12/19 04:11:35;;;;;;;3.65;2.33;;;;;;;-145.06;0.00;60892.56;4714381;29;20040;-86
2021/12/19 04:14:14;;;;;;;3.60;2.33;;;;;;;-145.06;0.00;60892.56;4718045;29;20487;-86
2021/12/19 04:16:53;;;;;;;2.97;2.10;;;;;;;-145.06;0.00;60892.56;4728566;29;20040;-87
2021/12/19 04:19:32;;;;;;;3.07;2.00;;;;;;;-145.06;0.00;60892.56;4712005;29;20032;-85
2021/12/19 04:22:11;;;;;;;3.35;2.33;;;;;;;-145.06;0.00;60892.56;4727586;29;20032;-87
2021/12/19 04:24:50;;;;;;;2.72;1.98;;;;;;;-145.06;0.00;60892.56;4713726;29;20368;-85
2021/12/19 04:27:29;;;;;;;2.73;1.97;;;;;;;-145.06;0.00;60892.56;4712726;29;20032;-85
2021/12/19 04:30:11;;;;;;;3.60;2.20;;;;;;;-145.06;0.00;60892.56;4715804;29;20036;-86
2021/12/19 04:33:00;;;;;;;4.03;2.50;;;;;;;7.47;0.00;60892.56;4723821;29;20044;-87
2021/12/19 04:35:44;;;;;;;2.80;2.13;;;;;;;-145.06;0.00;60892.56;4730907;29;20032;-86
2021/12/19 04:59:13;;;;;;;3.05;2.00;;;;;;;-145.06;0.00;60892.56;4727957;29;20036;-86
2021/12/19 05:16:44;;;;;;;2.88;1.90;;;;;;;7.37;0.00;60892.56;4720258;29;20033;-86
2021/12/19 05:19:42;;;;;;;3.17;1.83;;;;;;;-145.06;0.00;60892.56;4711362;29;20044;-86
2021/12/19 05:22:26;;;;;;;3.63;2.28;;;;;;;-145.06;0.00;60892.56;4710199;29;20384;-85
2021/12/19 05:25:15;;;;;;;3.15;2.17;;;;;;;-145.06;0.00;60892.56;4713581;29;20039;-87
2021/12/19 05:27:56;;;;;;;3.33;2.20;;;;;;;-145.06;0.00;60892.56;4718016;29;20063;-86
2021/12/19 05:30:35;;;;;;;3.40;2.03;;;;;;;-145.06;0.00;60892.56;4727310;29;20044;-86
2021/12/19 05:33:15;;;;;;;3.28;1.83;;;;;;;-145.06;0.00;60892.56;4726079;29;20720;-86
2021/12/19 05:44:08;;;;;;;2.90;2.00;;;;;;;-145.06;0.00;60892.56;4732463;29;20501;-85
2021/12/19 05:47:37;;;;;;;3.38;1.90;;;;;;;-145.06;0.00;60892.56;4725210;29;20032;-86
2021/12/19 05:50:19;;;;;;;2.90;2.00;;;;;;;-145.06;0.00;60892.56;4719798;29;20036;-85
2021/12/19 05:52:58;;;;;;;3.00;1.95;;;;;;;-145.06;0.00;60892.56;4726937;29;20040;-86
2021/12/19 05:55:38;;;;;;;3.65;1.77;;;;;;;-145.06;0.00;60892.56;4722128;29;20064;-86
2021/12/19 05:58:17;;;;;;;2.78;1.88;;;;;;;10.68;0.00;60892.56;4714694;29;20036;-86
2021/12/19 06:00:56;;;;;;;2.53;1.73;;;;;;;-145.06;0.00;60892.56;4738602;29;20379;-86
2021/12/19 06:03:35;;;;;;;2.92;1.95;;;;;;;-145.06;0.00;60892.56;4729980;29;20032;-85
2021/12/19 06:06:14;;;;;;;2.97;1.90;;;;;;;-145.06;0.00;60892.56;4730120;29;20048;-86
2021/12/19 06:08:54;;;;;;;3.23;1.83;;;;;;;-145.06;0.00;60892.56;4713169;29;20036;-86
2021/12/19 06:11:33;;;;;;;;;;;;;;;-145.06;0.00;60892.56;4703807;29;20632;-87
2021/12/19 06:14:12;;;;;;;3.03;2.15;;;;;;;-145.06;0.00;60892.56;4726106;29;20006;-86
2021/12/19 06:16:51;;;;;;;3.17;2.05;;;;;;;-145.06;0.00;60892.56;4713614;29;20033;-86
2021/12/19 06:19:36;;;;;;;3.10;2.03;;;;;;;187.52;0.00;60892.56;4725208;29;20040;-86
2021/12/19 06:22:15;;;;;;;3.13;2.13;;;;;;;-145.06;0.00;60892.56;4711302;29;20724;-86
2021/12/19 06:24:54;;;;;;;3.27;2.10;;;;;;;-145.06;0.00;60892.56;4733027;29;20419;-86
2021/12/19 06:27:33;;;;;;;2.50;1.97;;;;;;;-145.06;0.00;60892.56;4717731;29;20467;-85
2021/12/19 06:30:12;;;;;;;3.47;2.42;;;;;;;-145.06;0.00;60892.56;4725766;29;20672;-86
2021/12/19 06:32:51;;;;;;;2.40;1.90;;;;;;;-145.06;0.00;60892.56;4723950;29;20036;-86
2021/12/19 06:35:31;;;;;;;3.08;1.73;;;;;;;-145.06;0.00;60892.56;4711022;29;20033;-86
2021/12/19 06:38:12;;;;;;;2.92;2.05;;;;;;;-145.06;0.00;60892.56;4726851;29;20801;-85
2021/12/19 06:40:51;;;;;;;2.97;1.77;;;;;;;-145.06;0.00;60892.56;4714526;29;20037;-85
2021/12/19 06:43:32;;;;;;;2.45;1.80;;;;;;;-145.06;0.00;60892.56;4717801;29;20384;-87
2021/12/19 06:46:12;;;;;;;2.40;1.70;;;;;;;-145.06;0.00;60892.56;4730633;29;20036;-85
2021/12/19 06:48:51;;;;;;;2.90;1.95;;;;;;;-145.06;0.00;60892.56;4715886;29;20554;-86
2021/12/19 06:51:32;;;;;;;3.23;2.10;;;;;;;-145.06;0.00;60892.56;4725552;29;20033;-86
2021/12/19 06:54:11;;;;;;;2.45;1.80;;;;;;;-145.06;0.00;60892.56;4727669;29;20304;-86
2021/12/19 06:56:50;;;;;;;2.38;1.58;;;;;;;-145.06;0.00;60892.56;4706952;29;20399;-86
2021/12/19 06:59:29;;;;;;;2.75;1.80;;;;;;;-145.06;0.00;60892.56;4729670;29;20025;-86
2021/12/19 07:02:14;;;;;;;2.35;1.70;;;;;;;-145.06;0.00;60892.56;4714186;29;20064;-86
2021/12/19 07:04:53;;;;;;;2.33;1.67;;;;;;;-145.06;0.00;60892.56;4717875;29;20115;-86
2021/12/19 07:07:32;;;;;;;2.58;1.75;;;;;;;-145.06;0.00;60892.56;4706194;29;20482;-85
2021/12/19 07:10:11;;;;;;;2.25;1.65;;;;;;;-145.06;0.00;60892.56;4723280;29;20036;-86
2021/12/19 07:12:50;;;;;;;2.80;1.88;;;;;;;-145.06;0.00;60892.56;4705202;29;20092;-85
2021/12/19 07:15:29;;;;;;;2.60;1.63;;;;;;;-145.06;0.00;60892.56;4723946;29;20040;-87
2021/12/19 07:18:08;;;;;;;3.13;1.90;;;;;;;187.52;0.00;60892.56;4729439;29;20029;-86
2021/12/19 07:20:47;;;;;;;2.85;1.90;;;;;;;-145.06;0.00;60892.56;4715751;29;20037;-85
2021/12/19 07:23:27;;;;;;;1.65;1.33;;;;;;;-145.06;0.00;60892.56;4727969;29;20367;-85
2021/12/19 07:26:07;;;;;;;1.77;1.17;;;;;;;-145.06;0.00;60892.56;4732122;29;20056;-86
2021/12/19 07:28:47;;;;;;;2.10;1.58;;;;;;;-145.06;0.00;60892.56;4725103;29;20028;-86
2021/12/19 07:31:29;;;;;;;2.63;1.63;;;;;;;-145.06;0.00;60892.56;4718409;29;20037;-86
2021/12/19 07:34:09;;;;;;;2.50;1.60;;;;;;;-145.06;0.00;60892.56;4714619;29;20474;-85
2021/12/19 07:36:52;;;;;;;2.70;1.63;;;;;;;-145.06;0.00;60892.56;4709213;29;20116;-85
2021/12/19 07:39:51;;;;;;;2.63;1.65;;;;;;;-145.06;0.00;60892.56;4714539;29;20111;-86
2021/12/19 07:42:30;;;;;;;2.30;1.35;;;;;;;-145.06;0.00;60892.56;4718439;29;20044;-86
2021/12/19 07:45:11;;;;;;;1.80;1.30;;;;;;;-145.06;0.00;60892.56;4720098;29;20040;-85
2021/12/19 07:47:50;;;;;;;1.75;1.20;;;;;;;-145.06;0.00;60892.56;4722258;29;20288;-85
2021/12/19 07:50:30;;;;;;;1.92;1.42;;;;;;;-145.06;0.00;60892.56;4726378;29;20028;-85
2021/12/19 07:53:09;;;;;;;1.48;1.23;;;;;;;-145.06;0.00;60892.56;4724361;29;20745;-86
2021/12/19 07:55:48;;;;;;;1.90;1.50;;;;;;;-145.06;0.00;60892.56;4726044;29;20025;-86
2021/12/19 07:58:27;;;;;;;2.03;1.70;;;;;;;-145.06;0.00;60892.56;4719712;29;20029;-86
2021/12/19 08:01:06;;;;;;;1.92;1.45;;;;;;;-145.06;0.00;60892.56;4720015;29;20040;-86
2021/12/19 08:03:45;;;;;;;2.60;1.80;;;;;;;-145.06;0.00;60892.56;4712910;29;20694;-86
2021/12/19 08:06:24;;;;;;;2.40;1.60;;;;;;;-145.06;0.00;60892.56;4722854;29;20182;-86
2021/12/19 08:09:20;;;;;;;2.10;1.43;;;;;;;-145.06;0.00;60892.56;4717858;29;20485;-85
2021/12/19 08:11:59;;;;;;;1.73;1.30;;;;;;;-145.06;0.00;60892.56;4724271;29;20751;-86
2021/12/19 08:14:38;;;;;;;2.57;1.50;;;;;;;-145.06;0.00;60892.56;4712078;29;20534;-86
2021/12/19 08:17:17;;;;;;;2.58;1.67;;;;;;;-145.06;0.00;60892.56;4711806;29;20277;-86
2021/12/19 08:19:56;;;;;;;2.10;1.48;;;;;;;-145.06;0.00;60892.56;4706925;29;20124;-85
2021/12/19 08:22:36;;;;;;;2.33;1.40;;;;;;;-145.06;0.00;60892.56;4705080;29;20790;-86
2021/12/19 08:25:16;;;;;;;1.73;1.30;;;;;;;-145.06;0.00;60892.56;4712300;29;20143;-86
2021/12/19 08:27:55;;;;;;;2.13;1.35;;;;;;;-145.06;0.00;60892.56;4710998;29;20749;-86
2021/12/19 08:30:34;;;;;;;2.22;1.60;;;;;;;-145.06;0.00;60892.56;4721386;29;20044;-86
2021/12/19 08:33:13;;;;;;;3.05;1.50;;;;;;;-145.06;0.00;60892.56;4710189;29;20036;-85
2021/12/19 08:35:52;;;;;;;2.07;1.40;;;;;;;-145.06;0.00;60892.56;4710678;29;20032;-86
2021/12/19 08:38:31;;;;;;;1.70;1.30;;;;;;;-145.06;0.00;60892.56;4719445;29;20596;-86
2021/12/19 08:41:10;;;;;;;2.85;1.60;;;;;;;-145.06;0.00;60892.56;4713835;29;20032;-85
2021/12/19 08:43:49;;;;;;;2.15;1.50;;;;;;;-145.06;0.00;60892.56;4711035;29;20044;-85
2021/12/19 08:46:31;;;;;;;2.30;1.55;;;;;;;-145.06;0.00;60892.56;4724720;29;20467;-86
2021/12/19 08:49:10;;;;;;;2.10;1.50;;;;;;;-145.06;0.00;60892.56;4708059;29;20787;-85
2021/12/19 08:51:49;;;;;;;2.37;1.80;;;;;;;-145.06;0.00;60892.56;4727037;29;20024;-85
2021/12/19 08:54:29;;;;;;;2.15;1.30;;;;;;;-145.06;0.00;60892.56;4719970;29;20060;-86
2021/12/19 08:57:08;;;;;;;2.47;1.30;;;;;;;-145.06;0.00;60892.56;4724822;29;20041;-84
2021/12/19 08:59:49;;;;;;;1.58;1.10;;;;;;;-145.06;0.00;60892.56;4719526;29;20029;-85
2021/12/19 09:02:28;;;;;;;2.90;1.42;;;;;;;-145.06;0.00;60892.56;4712386;29;20593;-85
2021/12/19 09:05:08;;;;;;;2.17;1.58;;;;;;;-145.06;0.00;60892.56;4725546;29;20048;-86
2021/12/19 09:07:50;;;;;;;3.00;1.70;;;;;;;-145.06;0.00;60892.56;4721332;29;20036;-85
2021/12/19 09:10:29;;;;;;;3.17;1.85;;;;;;;-145.06;0.00;60892.56;4708561;29;20036;-85
2021/12/19 09:13:09;;;;;;;2.72;1.50;;;;;;;-145.06;0.00;60892.56;4727955;29;20036;-85
2021/12/19 09:15:51;;;;;;;2.53;1.48;;;;;;;-145.06;0.00;60892.56;4715416;29;20105;-85
2021/12/19 09:18:31;;;;;;;2.78;1.70;;;;;;;-145.06;0.00;60892.56;4729863;29;20036;-85
2021/12/19 09:21:10;;;;;;;3.00;1.50;;;;;;;-145.06;0.00;60892.56;4710118;29;20036;-85
2021/12/19 09:23:49;;;;;;;2.33;1.50;;;;;;;-145.06;0.00;60892.56;4713369;29;20044;-86
2021/12/19 09:26:28;;;;;;;1.88;1.20;;;;;;;-145.06;0.00;60892.56;4712236;29;20068;-85
2021/12/19 09:29:08;;;;;;;2.58;1.48;;;;;;;-145.06;0.00;60892.56;4708433;29;20032;-85
2021/12/19 09:31:47;;;;;;;2.40;1.38;;;;;;;-145.06;0.00;60892.56;4723284;29;20115;-85
2021/12/19 09:34:27;;;;;;;3.08;1.55;;;;;;;-145.06;0.00;60892.56;4713162;29;20608;-85
2021/12/19 09:37:06;;;;;;;2.30;1.10;;;;;;;-145.06;0.00;60892.56;4713070;29;20155;-86
2021/12/19 09:39:46;;;;;;;1.90;1.43;;;;;;;-145.06;0.00;60892.56;4723247;29;20044;-85
2021/12/19 09:42:33;;;;;;;1.85;1.10;;;;;;;-145.06;0.00;60892.56;4715024;29;20123;-84
2021/12/19 09:45:12;;;;;;;2.10;1.23;;;;;;;-145.06;0.00;60892.56;4708912;29;20493;-85
2021/12/19 09:47:51;;;;;;;2.77;1.63;;;;;;;-145.06;0.00;60892.56;4709595;29;20040;-85
2021/12/19 09:50:31;;;;;;;2.63;1.27;;;;;;;-145.06;0.00;60892.56;4709218;29;20277;-85
2021/12/19 09:53:09;;;;;;;2.10;1.20;;;;;;;-145.06;0.00;60892.56;4725095;29;20036;-87
2021/12/19 09:55:48;;;;;;;2.78;1.77;;;;;;;-145.06;0.00;60892.56;4720444;29;20040;-86
2021/12/19 09:58:31;;;;;;;3.10;1.52;;;;;;;187.52;0.00;60892.56;4712435;29;20427;-85
2021/12/19 10:01:12;;;;;;;1.63;1.33;;;;;;;-145.06;0.00;60892.56;4705214;29;20044;-86
2021/12/19 10:03:51;;;;;;;2.05;1.27;;;;;;;-145.06;0.00;60892.56;4711057;29;20024;-87
2021/12/19 10:06:31;;;;;;;1.70;1.30;;;;;;;-145.06;0.00;60892.56;4722621;29;20044;-86
2021/12/19 10:09:17;;;;;;;1.58;1.10;;;;;;;-145.06;0.00;60892.56;4710587;29;20045;-86
2021/12/19 10:12:10;;;;;;;1.65;1.05;;;;;;;-145.06;0.00;60892.56;4723654;29;20072;-87
2021/12/19 10:14:53;;;;;;;1.60;1.02;;;;;;;-145.06;0.00;60892.56;4724822;29;20032;-86
2021/12/19 10:17:32;;;;;;;2.22;1.38;;;;;;;-145.06;0.00;60892.56;4712433;29;20115;-88
2021/12/19 10:20:15;;;;;;;1.92;1.27;;;;;;;-145.06;0.00;60892.56;4722685;29;20032;-86
2021/12/19 10:22:54;;;;;;;1.45;1.17;;;;;;;-145.06;0.00;60892.56;4710804;29;20040;-87
2021/12/19 10:25:35;;;;;;;1.30;1.02;;;;;;;-145.06;0.00;60892.56;4709188;29;20044;-87
2021/12/19 10:28:14;;;;;;;1.35;1.00;;;;;;;-145.06;0.00;60892.56;4731242;29;20036;-87
2021/12/19 10:30:53;;;;;;;1.53;0.90;;;;;;;-145.06;0.00;60892.56;4722832;29;20079;-86
2021/12/19 10:33:32;;;;;;;1.10;0.90;;;;;;;-145.06;0.00;60892.56;4725297;29;20036;-86
2021/12/19 10:36:12;;;;;;;2.05;1.20;;;;;;;-145.06;0.00;60892.56;4705106;29;20372;-87
2021/12/19 10:38:52;;;;;;;1.48;1.00;;;;;;;-145.06;0.00;60892.56;4721010;29;20368;-86
2021/12/19 10:41:35;;;;;;;2.20;1.35;;;;;;;-145.06;0.00;60892.56;4721905;29;20371;-86
2021/12/19 10:47:27;;;;;;;1.92;1.20;;;;;;;-145.06;0.00;60892.56;4723689;29;20041;-87
2021/12/19 10:50:06;;;;;;;1.27;0.82;;;;;;;-145.06;0.00;60892.56;4709970;29;20044;-86
2021/12/19 10:52:45;;;;;;;2.13;1.20;;;;;;;-145.06;0.00;60892.56;4711738;29;20037;-87
2021/12/19 10:55:28;;;;;;;2.03;1.20;;;;;;;-145.06;0.00;60892.56;4721237;29;20040;-87
2021/12/19 10:58:28;;;;;;;2.28;1.10;;;;;;;-145.06;0.00;60892.56;4710415;29;20037;-87
2021/12/19 11:01:10;;;;;;;;;;;;;;;-145.06;0.00;60892.56;4708995;29;20032;-87
2021/12/19 11:03:56;;;;;;;1.30;0.93;;;;;;;-145.06;0.00;60892.56;4726836;29;19915;-87
2021/12/19 11:06:41;;;;;;;0.98;0.80;;;;;;;-145.06;0.00;60892.56;4707461;29;20474;-87
2021/12/19 11:09:22;;;;;;;1.85;1.17;;;;;;;-145.06;0.00;60892.56;4713030;29;20033;-87
2021/12/19 11:12:10;;;;;;;2.13;1.05;;;;;;;-145.06;0.00;60892.56;4713430;29;20037;-86
2021/12/19 11:14:49;;;;;;;1.52;1.10;;;;;;;-145.06;0.00;60892.56;4705578;29;20479;-87
2021/12/19 11:17:28;;;;;;;1.30;1.03;;;;;;;-145.06;0.00;60892.56;4701213;29;20025;-86
2021/12/19 11:20:07;;;;;;;2.67;1.23;;;;;;;-145.06;0.00;60892.56;4708573;29;20033;-86
2021/12/19 11:22:46;;;;;;;2.03;1.25;;;;;;;-145.06;0.00;60892.56;4724064;29;20041;-87
2021/12/19 11:25:26;;;;;;;2.15;1.40;;;;;;;-145.06;0.00;60892.56;4719616;29;20032;-87
2021/12/19 11:28:05;;;;;;;2.35;1.00;;;;;;;-145.06;0.00;60892.56;4723661;29;20037;-88
2021/12/19 11:30:44;;;;;;;1.88;1.20;;;;;;;-145.06;0.00;60892.56;4725051;29;20388;-86
2021/12/19 11:33:58;;;;;;;1.87;1.00;;;;;;;-145.06;0.00;60892.56;4712903;29;21458;-86
2021/12/19 11:36:41;;;;;;;1.90;1.30;;;;;;;8.08;0.00;60892.56;4687141;29;20041;-86
2021/12/19 11:39:24;;;;;;;2.08;1.38;;;;;;;-145.06;0.00;60892.56;4713304;29;20032;-87
2021/12/19 11:42:14;;;;;;;1.77;1.27;;;;;;;-145.06;0.00;60892.56;4715497;29;20040;-86
2021/12/19 11:47:50;;;;;;;1.92;1.20;;;;;;;-145.06;0.00;60892.56;4726455;29;20033;-86
2021/12/19 11:50:45;;;;;;;2.30;1.30;;;;;;;-145.06;0.00;60892.56;4721664;29;20040;-87
2021/12/19 11:53:43;;;;;;;1.65;1.17;;;;;;;-145.06;0.00;60892.56;4713072;29;20036;-86
2021/12/19 11:56:21;;;;;;;1.85;1.13;;;;;;;-145.06;0.00;60892.56;4711887;29;20036;-86
2021/12/19 11:59:17;;;;;;;1.45;1.15;;;;;;;-145.06;0.00;60892.56;4716563;29;20036;-87
2021/12/19 12:02:23;;;;;;;1.35;1.02;;;;;;;-145.06;0.00;60892.56;4709061;29;20033;-87
2021/12/19 12:05:14;;;;;;;1.65;1.20;;;;;;;-145.06;0.00;60892.56;4724457;29;20040;-87
2021/12/19 12:08:09;;;;;;;1.90;1.48;;;;;;;-145.06;0.00;60892.56;4725021;29;20032;-87
2021/12/19 12:10:49;;;;;;;1.70;1.17;;;;;;;-145.06;0.00;60892.56;4720964;29;20053;-87
2021/12/19 12:13:33;;;;;;;1.50;1.20;;;;;;;-145.06;0.00;60892.56;4723665;29;20036;-87
2021/12/19 12:16:21;;;;;;;2.47;1.40;;;;;;;-145.06;0.00;60892.56;4718217;29;20479;-86
2021/12/19 12:19:04;;;;;;;2.35;1.42;;;;;;;-145.06;0.00;60892.56;4715139;29;20037;-86
2021/12/19 12:21:48;;;;;;;1.90;1.35;;;;;;;7.60;0.00;60892.56;4721897;29;20380;-86
2021/12/19 12:24:29;;;;;;;1.50;1.33;;;;;;;7.60;0.00;60892.56;4713323;29;20572;-86
2021/12/19 12:27:12;;;;;;;2.10;1.58;;;;;;;-145.06;0.00;60892.56;4713346;29;20036;-85
2021/12/19 12:29:52;;;;;;;2.63;1.58;;;;;;;-145.06;0.00;60892.56;4725540;29;20112;-86
2021/12/19 12:32:31;;;;;;;2.45;1.60;;;;;;;-145.06;0.00;60892.56;4722134;29;20028;-86
2021/12/19 12:35:12;;;;;;;2.22;1.40;;;;;;;-145.06;0.00;60892.56;4721016;29;20431;-86
2021/12/19 12:37:51;;;;;;;2.45;1.77;;;;;;;7.76;0.00;60892.56;4710466;29;20032;-86
2021/12/19 12:43:30;;;;;;;2.33;1.40;;;;;;;-145.06;0.00;60892.56;4722734;29;20119;-86
2021/12/19 12:46:17;;;;;;;1.73;1.25;;;;;;;-145.06;0.00;60892.56;4724239;29;20040;-85
2021/12/19 12:49:01;;;;;;;2.25;1.40;;;;;;;-145.06;0.00;60892.56;4724480;29;20041;-85
2021/12/19 12:51:43;;;;;;;2.15;1.48;;;;;;;-145.06;0.00;60892.56;4725566;29;20060;-87
2021/12/19 12:54:32;;;;;;;2.15;1.40;;;;;;;-145.06;0.00;60892.56;4717278;29;20048;-86
2021/12/19 12:57:15;;;;;;;2.13;1.50;;;;;;;-145.06;0.00;60892.56;4726245;29;20040;-86
2021/12/19 12:59:54;;;;;;;2.05;1.40;;;;;;;7.52;0.00;60892.56;4720465;29;20280;-87
2021/12/19 13:02:42;;;;;;;2.07;1.60;;;;;;;-145.06;0.00;60892.56;4726470;29;20044;-87
2021/12/19 13:05:21;;;;;;;2.40;1.73;;;;;;;7.51;0.00;60892.56;4711518;29;20036;-86
2021/12/19 13:08:00;;;;;;;2.07;1.50;;;;;;;-145.06;0.00;60892.56;4729600;29;20490;-86
2021/12/19 13:10:40;;;;;;;2.23;1.70;;;;;;;-145.06;0.00;60892.56;4717251;29;20036;-86
2021/12/19 13:13:25;;;;;;;2.28;1.58;;;;;;;-145.06;0.00;60892.56;4714206;29;20040;-87
2021/12/19 13:16:04;;;;;;;1.88;1.38;;;;;;;-145.06;0.00;60892.56;4723375;29;20041;-87
2021/12/19 13:18:44;;;;;;;2.60;1.73;;;;;;;-145.06;0.00;60892.56;4727448;29;20040;-86
2021/12/19 13:21:23;;;;;;;2.25;1.50;;;;;;;-145.06;0.00;60892.56;4728170;29;20037;-86
2021/12/19 13:24:03;;;;;;;2.05;1.60;;;;;;;7.60;0.00;60892.56;4727692;29;20068;-87
2021/12/19 13:26:43;;;;;;;1.88;1.38;;;;;;;-145.06;0.00;60892.56;4725092;29;20032;-87
2021/12/19 13:29:22;;;;;;;2.50;1.60;;;;;;;7.60;0.00;60892.56;4711568;29;20750;-85
2021/12/19 13:32:26;;;;;;;1.60;1.20;;;;;;;-145.06;0.00;60892.56;4726411;29;20024;-84
2021/12/19 13:35:27;;;;;;;1.70;1.45;;;;;;;-145.06;0.00;60892.56;4723477;29;20379;-86
2021/12/19 13:38:15;;;;;;;2.47;1.75;;;;;;;7.76;0.00;60892.56;4713794;29;20033;-86
2021/12/19 13:41:06;;;;;;;2.50;1.85;;;;;;;-145.06;0.00;60892.56;4713045;29;20028;-86
2021/12/19 13:43:44;;;;;;;1.88;1.42;;;;;;;-145.06;0.00;60892.56;4722926;29;20036;-86